Time;durP1;ratioP1;P1;durP2;ratioP2;P2;SDS_P1;SDS_P2;PMS_P1;PMS_P2;Temp;Humidity;BMP_temperature;BMP_pressure;BME280_temperature;BME280_humidity;BME280_pressure;Samples;Min_cycle;Max_cycle;Signal;HPM_P1;HPM_P2
2024/02/29 00:01:38;;;;;;;81.20;58.27;;;4.00;90.80;;;;;;5037122;28;20241;-91
2024/02/29 00:04:04;;;;;;;86.70;61.03;;;4.00;90.90;;;;;;5037060;28;20191;-91
2024/02/29 00:06:29;;;;;;;87.00;58.40;;;4.00;91.00;;;;;;5037804;28;20179;-91
2024/02/29 00:08:55;;;;;;;81.33;58.83;;;4.20;91.20;;;;;;5039497;28;20563;-91
2024/02/29 00:11:21;;;;;;;86.17;59.00;;;4.30;91.00;;;;;;5040827;28;20676;-91
2024/02/29 00:13:46;;;;;;;75.20;47.47;;;4.30;90.70;;;;;;5040958;28;20203;-92
2024/02/29 00:16:12;;;;;;;71.70;47.23;;;4.30;90.70;;;;;;5041023;28;20607;-91
2024/02/29 00:18:37;;;;;;;79.17;47.57;;;4.10;90.60;;;;;;5040869;28;20283;-91
2024/02/29 00:21:03;;;;;;;79.40;47.43;;;4.10;90.80;;;;;;5041535;28;20176;-91
2024/02/29 00:23:29;;;;;;;77.77;46.37;;;4.10;91.00;;;;;;5040417;28;20642;-92
2024/02/29 00:25:54;;;;;;;76.93;47.57;;;4.20;91.00;;;;;;5040350;28;20281;-91
2024/02/29 00:28:20;;;;;;;80.27;46.37;;;4.20;91.10;;;;;;5041567;28;20198;-92
2024/02/29 00:30:45;;;;;;;79.43;47.40;;;4.10;91.10;;;;;;5041428;28;20183;-91
2024/02/29 00:33:11;;;;;;;77.67;47.10;;;4.20;91.10;;;;;;5040910;28;20674;-91
2024/02/29 00:35:36;;;;;;;83.00;47.63;;;4.20;91.10;;;;;;5041321;28;20186;-91
2024/02/29 00:38:02;;;;;;;76.43;48.00;;;4.20;91.10;;;;;;5041261;28;20198;-91
2024/02/29 00:40:28;;;;;;;80.53;45.63;;;4.30;90.80;;;;;;5041499;28;20656;-91
2024/02/29 00:42:54;;;;;;;79.87;47.17;;;4.30;90.70;;;;;;5041237;28;20180;-91
2024/02/29 00:45:20;;;;;;;79.63;47.50;;;4.30;90.70;;;;;;5041316;28;20222;-91
2024/02/29 00:47:45;;;;;;;78.33;47.23;;;4.30;90.60;;;;;;5040885;28;20182;-91
2024/02/29 00:50:11;;;;;;;81.50;46.77;;;4.30;90.60;;;;;;5041093;28;20229;-91
2024/02/29 00:52:38;;;;;;;84.97;50.10;;;4.30;90.50;;;;;;5041635;28;20211;-91
2024/02/29 00:55:04;;;;;;;82.93;47.67;;;4.30;90.50;;;;;;5041844;28;20179;-91
2024/02/29 00:57:29;;;;;;;81.27;48.43;;;4.30;90.50;;;;;;5041258;28;20190;-91
2024/02/29 00:59:55;;;;;;;80.07;48.60;;;4.30;90.50;;;;;;5041546;28;20192;-91
2024/02/29 01:02:20;;;;;;;86.63;48.50;;;4.30;90.50;;;;;;5041670;28;20179;-91
2024/02/29 01:04:46;;;;;;;77.87;48.63;;;4.30;90.40;;;;;;5040698;28;20237;-91
2024/02/29 01:07:11;;;;;;;79.10;48.60;;;4.30;90.40;;;;;;5042087;28;20180;-91
2024/02/29 01:09:37;;;;;;;81.43;47.37;;;4.30;90.40;;;;;;5042168;28;20605;-92
2024/02/29 01:12:02;;;;;;;84.27;49.27;;;4.40;90.30;;;;;;5040323;28;20195;-91
2024/02/29 01:14:28;;;;;;;86.63;48.77;;;4.40;90.30;;;;;;5040433;28;20249;-92
2024/02/29 01:16:56;;;;;;;82.57;48.57;;;4.40;90.20;;;;;;5040660;28;20178;-91
2024/02/29 01:19:21;;;;;;;82.40;48.40;;;4.40;90.20;;;;;;5038780;28;20196;-91
2024/02/29 01:21:47;;;;;;;74.50;47.17;;;4.50;90.10;;;;;;5039635;28;20176;-91
2024/02/29 01:24:12;;;;;;;88.63;58.93;;;4.50;90.00;;;;;;5040926;28;20184;-91
2024/02/29 01:26:38;;;;;;;90.17;58.23;;;4.50;90.00;;;;;;5039436;28;20190;-91
2024/02/29 01:29:04;;;;;;;85.20;57.60;;;4.50;89.90;;;;;;5039125;28;20576;-89
2024/02/29 01:31:29;;;;;;;77.47;53.37;;;4.60;89.90;;;;;;5038626;28;20191;-90
2024/02/29 01:33:55;;;;;;;82.83;57.73;;;4.60;89.90;;;;;;5039528;28;20214;-90
2024/02/29 01:36:20;;;;;;;86.60;58.10;;;4.60;89.70;;;;;;5038806;28;20179;-90
2024/02/29 01:38:46;;;;;;;82.53;58.80;;;4.60;89.60;;;;;;5039066;28;20247;-89
2024/02/29 01:41:12;;;;;;;86.70;59.67;;;4.70;89.50;;;;;;5039324;28;20233;-90
2024/02/29 01:43:38;;;;;;;84.07;58.60;;;4.70;89.40;;;;;;5039245;28;20677;-90
2024/02/29 01:46:13;;;;;;;77.93;57.17;;;4.70;89.30;;;;;;5038397;28;20180;-90
2024/02/29 01:48:40;;;;;;;82.87;60.60;;;4.70;89.00;;;;;;5038747;28;20210;-90
2024/02/29 01:51:08;;;;;;;72.37;53.90;;;4.70;89.00;;;;;;5039134;28;20241;-90
2024/02/29 01:53:34;;;;;;;84.73;59.27;;;4.70;88.80;;;;;;5039218;28;20203;-90
2024/02/29 01:56:00;;;;;;;77.03;56.10;;;4.70;88.70;;;;;;5038609;28;20180;-89
2024/02/29 01:58:26;;;;;;;71.10;55.83;;;4.70;88.70;;;;;;5038120;28;20196;-90
2024/02/29 02:00:52;;;;;;;79.33;55.77;;;4.80;88.70;;;;;;5056486;28;20306;-89
2024/02/29 02:03:18;;;;;;;78.73;56.53;;;4.70;88.60;;;;;;5038486;28;20660;-89
2024/02/29 02:05:44;;;;;;;75.80;55.33;;;4.70;88.60;;;;;;5038498;28;20647;-90
2024/02/29 02:08:11;;;;;;;70.80;54.70;;;4.80;88.50;;;;;;5038638;28;20290;-89
2024/02/29 02:10:37;;;;;;;74.73;55.50;;;4.80;88.40;;;;;;5038606;28;20220;-89
2024/02/29 02:13:03;;;;;;;73.50;56.20;;;4.80;88.30;;;;;;5041793;28;20630;-89
2024/02/29 02:15:29;;;;;;;75.93;56.57;;;4.80;88.00;;;;;;5038470;28;20234;-89
2024/02/29 02:17:54;;;;;;;73.63;53.93;;;4.80;87.70;;;;;;5038489;28;20628;-90
2024/02/29 02:20:20;;;;;;;77.33;56.43;;;4.90;87.80;;;;;;5038667;28;20531;-90
2024/02/29 02:22:46;;;;;;;75.23;55.37;;;4.80;87.70;;;;;;5037666;28;20275;-90
2024/02/29 02:25:12;;;;;;;75.90;54.47;;;4.80;87.90;;;;;;5038701;28;20218;-89
2024/02/29 02:27:38;;;;;;;75.70;56.20;;;4.80;87.90;;;;;;5037856;28;20180;-90
2024/02/29 02:30:06;;;;;;;68.13;53.00;;;4.80;87.80;;;;;;5038149;28;20206;-90
2024/02/29 02:32:33;;;;;;;73.97;55.57;;;4.80;87.80;;;;;;5038035;28;20211;-90
2024/02/29 02:34:58;;;;;;;69.73;55.00;;;4.70;87.70;;;;;;5037800;28;20553;-90
2024/02/29 02:37:24;;;;;;;67.57;55.17;;;4.70;87.70;;;;;;5039201;28;20182;-90
2024/02/29 02:39:49;;;;;;;71.10;56.13;;;4.80;87.80;;;;;;5037934;28;20710;-90
2024/02/29 02:42:15;;;;;;;66.27;53.43;;;4.70;87.60;;;;;;5039040;28;20232;-90
2024/02/29 02:44:41;;;;;;;71.87;56.70;;;4.60;87.60;;;;;;5037391;28;20186;-90
2024/02/29 02:47:06;;;;;;;60.13;42.33;;;4.60;87.70;;;;;;5037406;28;20187;-90
2024/02/29 02:49:32;;;;;;;60.93;43.50;;;4.80;87.40;;;;;;5038176;28;20200;-90
2024/02/29 02:51:57;;;;;;;61.07;43.53;;;4.60;87.40;;;;;;5037599;28;20180;-90
2024/02/29 02:54:23;;;;;;;65.57;43.13;;;4.60;87.40;;;;;;5036864;28;20211;-90
2024/02/29 02:56:48;;;;;;;59.97;42.20;;;4.60;87.20;;;;;;5037699;28;20182;-89
2024/02/29 02:59:14;;;;;;;61.63;42.33;;;4.60;87.10;;;;;;5037426;28;20196;-89
2024/02/29 03:01:40;;;;;;;63.20;43.53;;;4.60;87.10;;;;;;5037138;28;20172;-90
2024/02/29 03:04:05;;;;;;;63.47;43.13;;;4.50;87.10;;;;;;5037557;28;20180;-90
2024/02/29 03:06:31;;;;;;;56.80;41.93;;;4.40;87.20;;;;;;5037188;28;20275;-90
2024/02/29 03:08:56;;;;;;;59.13;43.07;;;4.40;87.30;;;;;;5037635;28;20210;-89
2024/02/29 03:11:22;;;;;;;61.07;43.43;;;4.40;87.10;;;;;;5036552;28;20203;-90
2024/02/29 03:13:48;;;;;;;64.50;44.80;;;4.50;87.00;;;;;;5036585;28;20204;-89
2024/02/29 03:16:23;;;;;;;59.73;42.53;;;4.30;87.00;;;;;;5036741;28;20221;-89
2024/02/29 03:18:48;;;;;;;62.43;42.87;;;4.20;87.30;;;;;;5037113;28;20223;-90
2024/02/29 03:21:14;;;;;;;62.70;42.00;;;4.20;87.30;;;;;;5037200;28;20183;-89
2024/02/29 03:23:40;;;;;;;57.40;40.80;;;4.20;87.10;;;;;;5036549;28;20671;-90
2024/02/29 03:26:06;;;;;;;58.27;42.27;;;4.10;87.10;;;;;;5036531;28;20179;-90
2024/02/29 03:28:32;;;;;;;59.83;43.43;;;4.20;87.10;;;;;;5036876;28;20246;-89
2024/02/29 03:30:59;;;;;;;60.33;41.47;;;4.10;87.00;;;;;;5038022;28;20187;-89
2024/02/29 03:33:25;;;;;;;59.73;42.93;;;4.10;86.90;;;;;;5036818;28;20588;-90
2024/02/29 03:35:51;;;;;;;61.43;42.30;;;4.20;87.00;;;;;;5037558;28;20183;-90
2024/02/29 03:38:17;;;;;;;56.37;40.53;;;4.10;86.90;;;;;;5038447;28;20203;-90
2024/02/29 03:40:43;;;;;;;59.00;40.20;;;4.00;86.90;;;;;;5037470;28;20207;-89
2024/02/29 03:43:08;;;;;;;54.13;40.20;;;4.00;86.80;;;;;;5038754;28;20185;-90
2024/02/29 03:45:34;;;;;;;55.47;39.27;;;4.00;86.80;;;;;;5041928;28;20183;-90
2024/02/29 03:48:00;;;;;;;56.17;40.70;;;4.00;86.80;;;;;;5041367;28;20203;-89
2024/02/29 03:50:26;;;;;;;52.40;37.77;;;4.00;86.80;;;;;;5041679;28;20202;-89
2024/02/29 03:52:51;;;;;;;51.97;39.90;;;4.00;86.90;;;;;;5040897;28;20199;-89
2024/02/29 03:55:17;;;;;;;58.70;40.30;;;3.90;86.80;;;;;;5041000;28;20186;-89
2024/02/29 03:57:43;;;;;;;68.60;53.57;;;3.90;86.70;;;;;;5040496;28;20647;-90
2024/02/29 04:00:13;;;;;;;63.10;52.67;;;3.90;86.70;;;;;;5041401;28;20171;-90
2024/02/29 04:02:39;;;;;;;63.20;51.37;;;3.90;86.70;;;;;;5040714;28;20183;-91
2024/02/29 04:05:07;;;;;;;66.33;51.57;;;3.90;86.80;;;;;;5041709;28;20179;-90
2024/02/29 04:07:36;;;;;;;63.27;51.37;;;4.00;86.50;;;;;;5057922;28;20579;-90
2024/02/29 04:10:03;;;;;;;56.97;50.73;;;3.90;86.40;;;;;;5040627;28;20186;-90
2024/02/29 04:12:29;;;;;;;60.10;41.37;;;3.80;86.60;;;;;;5040273;28;20286;-89
2024/02/29 04:14:55;;;;;;;64.30;51.80;;;3.80;86.60;;;;;;5040865;28;20208;-90
2024/02/29 04:17:20;;;;;;;63.00;52.27;;;3.80;86.60;;;;;;5040540;28;20176;-89
2024/02/29 04:19:46;;;;;;;61.43;50.27;;;3.80;86.70;;;;;;5039997;28;20261;-90
2024/02/29 04:22:13;;;;;;;62.27;51.20;;;3.80;86.60;;;;;;5040510;28;20183;-90
2024/02/29 04:24:39;;;;;;;61.43;52.37;;;3.70;86.70;;;;;;5040042;28;20199;-90
2024/02/29 04:27:04;;;;;;;68.73;54.43;;;3.70;86.80;;;;;;5040503;28;20551;-89
2024/02/29 04:29:30;;;;;;;64.37;52.27;;;3.60;86.90;;;;;;5041032;28;20195;-90
2024/02/29 04:31:56;;;;;;;60.93;49.63;;;3.60;87.00;;;;;;5040919;28;20216;-89
2024/02/29 04:34:22;;;;;;;62.63;50.73;;;3.60;87.10;;;;;;5039699;28;20289;-89
2024/02/29 04:36:47;;;;;;;57.10;49.00;;;3.60;86.80;;;;;;5039761;28;20179;-89
2024/02/29 04:39:13;;;;;;;57.87;49.93;;;3.60;86.80;;;;;;5039890;28;20192;-89
2024/02/29 04:41:39;;;;;;;61.27;50.17;;;3.60;86.70;;;;;;5040048;28;20174;-90
2024/02/29 04:44:04;;;;;;;58.97;48.37;;;3.60;86.70;;;;;;5039935;28;20561;-90
2024/02/29 04:46:30;;;;;;;56.17;48.37;;;3.60;86.70;;;;;;5039698;28;20180;-90
2024/02/29 04:48:56;;;;;;;61.23;47.80;;;3.60;86.70;;;;;;5039737;28;20674;-90
2024/02/29 04:51:21;;;;;;;62.03;48.90;;;3.50;86.80;;;;;;5039918;28;20182;-90
2024/02/29 04:53:47;;;;;;;55.73;47.13;;;3.50;86.80;;;;;;5039740;28;20698;-90
2024/02/29 04:56:13;;;;;;;58.80;48.83;;;3.50;86.80;;;;;;5038454;28;20721;-90
2024/02/29 04:58:38;;;;;;;60.97;47.50;;;3.50;86.80;;;;;;5039164;28;20612;-89
2024/02/29 05:01:04;;;;;;;60.60;48.40;;;3.50;86.80;;;;;;5039141;28;20174;-89
2024/02/29 05:03:30;;;;;;;58.07;48.50;;;3.40;86.80;;;;;;5039242;28;20172;-89
2024/02/29 05:05:55;;;;;;;58.27;47.77;;;3.50;86.70;;;;;;5038815;28;20181;-89
2024/02/29 05:08:22;;;;;;;53.43;47.50;;;3.50;86.70;;;;;;5039356;28;20195;-89
2024/02/29 05:10:47;;;;;;;58.00;46.83;;;3.50;86.70;;;;;;5038759;28;20184;-89
2024/02/29 05:13:13;;;;;;;54.27;46.07;;;3.50;86.70;;;;;;5038991;28;20240;-90
2024/02/29 05:15:39;;;;;;;50.27;44.40;;;3.40;86.80;;;;;;5039483;28;20237;-89
2024/02/29 05:18:06;;;;;;;56.03;45.17;;;3.40;86.70;;;;;;5039416;28;20194;-89
2024/02/29 05:20:32;;;;;;;54.17;44.77;;;3.40;86.70;;;;;;5040296;28;20178;-90
2024/02/29 05:22:57;;;;;;;50.93;42.63;;;3.40;86.70;;;;;;5038751;28;20746;-90
2024/02/29 05:25:25;;;;;;;54.60;45.97;;;3.40;86.80;;;;;;5038482;28;20179;-89
2024/02/29 05:27:50;;;;;;;53.70;45.80;;;3.50;86.80;;;;;;5039449;28;20675;-90
2024/02/29 05:30:16;;;;;;;54.77;47.77;;;3.40;86.60;;;;;;5038850;28;20174;-89
2024/02/29 05:32:42;;;;;;;60.13;47.67;;;3.40;86.80;;;;;;5038141;28;20222;-89
2024/02/29 05:35:08;;;;;;;52.53;44.23;;;3.30;86.90;;;;;;5038664;28;20544;-89
2024/02/29 05:37:36;;;;;;;53.60;43.80;;;3.30;87.00;;;;;;5039180;28;20171;-89
2024/02/29 05:40:05;;;;;;;58.00;47.03;;;3.30;87.00;;;;;;5039978;28;20199;-89
2024/02/29 05:42:31;;;;;;;57.50;47.40;;;3.30;87.10;;;;;;5038016;28;20242;-90
2024/02/29 05:44:57;;;;;;;52.43;46.30;;;3.30;87.10;;;;;;5038100;28;20709;-89
2024/02/29 05:47:22;;;;;;;52.77;45.10;;;3.30;87.10;;;;;;5038649;28;20193;-89
2024/02/29 05:49:49;;;;;;;56.93;48.77;;;3.30;87.10;;;;;;5038106;28;20621;-90
2024/02/29 05:52:16;;;;;;;52.77;47.00;;;3.40;87.10;;;;;;5038221;28;20267;-89
2024/02/29 05:54:41;;;;;;;51.60;45.57;;;3.40;86.80;;;;;;5038229;28;20206;-90
2024/02/29 05:57:07;;;;;;;51.97;46.40;;;3.30;86.80;;;;;;5038440;28;20648;-89
2024/02/29 05:59:33;;;;;;;54.37;45.77;;;3.30;86.80;;;;;;5038053;28;20606;-90
2024/02/29 06:01:58;;;;;;;54.53;47.27;;;3.30;86.90;;;;;;5038208;28;20652;-89
2024/02/29 06:04:24;;;;;;;55.90;46.73;;;3.30;87.00;;;;;;5037967;28;20733;-89
2024/02/29 06:06:50;;;;;;;52.80;46.33;;;3.30;87.00;;;;;;5037613;28;20185;-90
2024/02/29 06:09:15;;;;;;;55.33;47.90;;;3.30;87.00;;;;;;5037920;28;20567;-90
2024/02/29 06:11:41;;;;;;;47.37;35.77;;;3.30;86.90;;;;;;5037550;28;20253;-89
2024/02/29 06:14:07;;;;;;;48.13;34.47;;;3.30;86.90;;;;;;5037154;28;20209;-90
2024/02/29 06:16:32;;;;;;;49.50;36.93;;;3.40;87.10;;;;;;5037866;28;20178;-90
2024/02/29 06:18:58;;;;;;;47.13;34.97;;;3.40;86.80;;;;;;5037448;28;20196;-89
2024/02/29 06:21:24;;;;;;;47.53;36.47;;;3.30;87.00;;;;;;5037781;28;20236;-89
2024/02/29 06:23:49;;;;;;;43.97;35.07;;;3.50;87.00;;;;;;5037503;28;20182;-90
2024/02/29 06:26:15;;;;;;;47.03;34.77;;;3.30;87.00;;;;;;5037649;28;20555;-90
2024/02/29 06:28:41;;;;;;;46.87;36.33;;;3.30;87.10;;;;;;5037617;28;20227;-90
2024/02/29 06:31:08;;;;;;;48.23;36.53;;;3.40;87.10;;;;;;5037707;28;20215;-90
2024/02/29 06:33:34;;;;;;;49.67;35.97;;;3.50;87.10;;;;;;5037109;28;20219;-90
2024/02/29 06:36:05;;;;;;;49.00;34.77;;;3.50;87.10;;;;;;5036977;28;20641;-90
2024/02/29 06:38:31;;;;;;;48.07;34.50;;;3.60;87.10;;;;;;5037971;28;20195;-90
2024/02/29 06:40:57;;;;;;;45.90;34.57;;;3.50;86.90;;;;;;5037336;28;20182;-90
2024/02/29 06:43:22;;;;;;;48.10;34.03;;;3.60;87.10;;;;;;5037452;28;20178;-90
2024/02/29 06:45:50;;;;;;;47.23;35.90;;;3.60;86.90;;;;;;5037947;28;20218;-90
2024/02/29 06:48:18;;;;;;;41.50;31.43;;;3.60;87.00;;;;;;5036354;28;20193;-90
2024/02/29 06:50:44;;;;;;;47.27;33.30;;;3.60;87.10;;;;;;5037133;28;20174;-89
2024/02/29 06:53:10;;;;;;;45.10;34.50;;;3.60;87.00;;;;;;5036894;28;20201;-90
2024/02/29 06:55:36;;;;;;;44.43;34.20;;;3.80;87.00;;;;;;5055356;28;20168;-89
2024/02/29 06:58:05;;;;;;;46.23;34.07;;;3.80;86.80;;;;;;5036760;28;20203;-89
2024/02/29 07:00:31;;;;;;;49.53;34.40;;;3.70;86.90;;;;;;5036950;28;20175;-89
2024/02/29 07:02:57;;;;;;;43.57;32.93;;;3.70;87.00;;;;;;5036939;28;20281;-89
2024/02/29 07:05:22;;;;;;;42.43;32.63;;;3.80;87.00;;;;;;5037083;28;20216;-90
2024/02/29 07:07:52;;;;;;;44.70;32.17;;;3.80;86.90;;;;;;5037383;28;20183;-89
2024/02/29 07:10:19;;;;;;;46.53;32.60;;;3.90;86.80;;;;;;5036650;28;20172;-90
2024/02/29 07:12:45;;;;;;;43.10;30.07;;;3.90;86.70;;;;;;5037047;28;20233;-90
2024/02/29 07:15:11;;;;;;;42.43;31.87;;;3.90;86.70;;;;;;5037110;28;20172;-90
2024/02/29 07:17:37;;;;;;;41.83;30.90;;;4.00;86.60;;;;;;5035961;28;20174;-89
2024/02/29 07:20:04;;;;;;;42.43;31.60;;;4.10;86.40;;;;;;5036560;28;20171;-90
2024/02/29 07:22:30;;;;;;;42.80;31.57;;;4.10;86.20;;;;;;5036329;28;20229;-90
2024/02/29 07:24:55;;;;;;;43.20;32.67;;;4.10;86.10;;;;;;5037510;28;20179;-90
2024/02/29 07:27:21;;;;;;;39.57;32.10;;;4.20;85.90;;;;;;5036665;28;20171;-89
2024/02/29 07:29:48;;;;;;;38.40;31.63;;;4.20;86.00;;;;;;5054660;28;20271;-91
2024/02/29 07:32:14;;;;;;;40.10;32.57;;;4.30;85.80;;;;;;5038601;28;20227;-90
2024/02/29 07:34:39;;;;;;;37.53;31.03;;;4.30;85.90;;;;;;5038799;28;20275;-89
2024/02/29 07:37:05;;;;;;;42.10;31.20;;;4.30;85.70;;;;;;5040239;28;20179;-90
2024/02/29 07:39:30;;;;;;;42.73;32.57;;;4.30;85.80;;;;;;5038462;28;20202;-89
2024/02/29 07:41:56;;;;;;;37.73;29.03;;;4.30;85.70;;;;;;5036482;28;20656;-90
2024/02/29 07:44:22;;;;;;;36.90;30.50;;;4.40;85.50;;;;;;5036586;28;20590;-90
2024/02/29 07:46:47;;;;;;;40.50;31.60;;;4.40;85.70;;;;;;5054047;28;20203;-91
2024/02/29 07:49:13;;;;;;;36.97;30.70;;;4.40;85.80;;;;;;5040088;28;20204;-90
2024/02/29 07:51:39;;;;;;;41.60;31.93;;;4.50;85.70;;;;;;5035784;28;20222;-90
2024/02/29 07:54:04;;;;;;;39.40;30.97;;;4.50;85.60;;;;;;5035722;28;20298;-90
2024/02/29 07:56:30;;;;;;;41.43;32.73;;;4.60;85.40;;;;;;5053571;28;20183;-90
2024/02/29 07:58:55;;;;;;;42.47;31.83;;;4.60;85.40;;;;;;5053422;28;20610;-89
2024/02/29 08:01:21;;;;;;;46.27;41.30;;;4.70;85.30;;;;;;5035741;28;20190;-90
2024/02/29 08:03:47;;;;;;;51.93;40.50;;;4.80;85.10;;;;;;5035734;28;20667;-90
2024/02/29 08:06:12;;;;;;;43.83;38.97;;;4.80;85.00;;;;;;5035976;28;20644;-90
2024/02/29 08:08:38;;;;;;;43.87;39.10;;;4.80;84.90;;;;;;5054668;28;20200;-91
2024/02/29 08:11:05;;;;;;;47.13;39.80;;;4.80;85.00;;;;;;5037051;28;20192;-89
2024/02/29 08:14:01;;;;;;;43.87;37.93;;;4.90;84.80;;;;;;5036222;28;20237;-90
2024/02/29 08:17:18;;;;;;;42.30;37.90;;;5.00;84.40;;;;;;5026454;28;20212;-91
2024/02/29 08:19:56;;;;;;;41.57;37.23;;;5.10;84.10;;;;;;5133607;23;20210;-90
2024/02/29 08:22:22;;;;;;;41.90;37.50;;;5.20;83.50;;;;;;5082770;28;20178;-90
2024/02/29 08:24:47;;;;;;;41.13;36.97;;;5.30;83.20;;;;;;5079325;28;20177;-91
2024/02/29 08:27:13;;;;;;;42.07;37.63;;;5.30;82.90;;;;;;5075358;28;20181;-90
2024/02/29 08:29:38;;;;;;;44.03;39.57;;;5.30;83.00;;;;;;5076473;28;20190;-90
2024/02/29 08:32:06;;;;;;;41.20;36.90;;;5.30;82.70;;;;;;5082218;28;20174;-91
2024/02/29 08:34:31;;;;;;;42.20;37.90;;;5.40;82.80;;;;;;5089436;28;20201;-90
2024/02/29 08:36:57;;;;;;;40.97;36.73;;;5.40;82.60;;;;;;5079374;28;20174;-89
2024/02/29 08:39:24;;;;;;;44.20;39.70;;;5.50;82.20;;;;;;5079238;28;20190;-90
2024/02/29 08:41:49;;;;;;;41.97;37.63;;;5.60;81.80;;;;;;5078723;28;20205;-90
2024/02/29 08:44:15;;;;;;;42.00;37.67;;;5.60;81.70;;;;;;5078470;28;20202;-90
2024/02/29 08:46:42;;;;;;;43.10;38.67;;;5.60;81.60;;;;;;5080122;28;20269;-89
2024/02/29 08:49:08;;;;;;;42.43;38.00;;;5.70;81.20;;;;;;5084204;28;20198;-90
2024/02/29 08:51:34;;;;;;;42.73;38.63;;;5.70;81.50;;;;;;5086468;28;20186;-90
2024/02/29 08:53:59;;;;;;;43.70;39.40;;;5.80;81.40;;;;;;5089060;28;20211;-91
2024/02/29 08:56:25;;;;;;;43.47;39.17;;;5.90;80.90;;;;;;5081036;28;20673;-92
2024/02/29 08:58:51;;;;;;;43.90;39.57;;;5.90;80.20;;;;;;5080136;28;20696;-92
2024/02/29 09:01:18;;;;;;;42.73;38.53;;;6.00;80.60;;;;;;5085809;28;20175;-90
2024/02/29 09:03:43;;;;;;;39.67;35.97;;;6.10;80.50;;;;;;5078278;28;20530;-89
2024/02/29 09:06:09;;;;;;;43.47;39.17;;;6.20;80.20;;;;;;5078574;28;20171;-90
2024/02/29 09:08:34;;;;;;;42.13;38.20;;;6.20;79.90;;;;;;5081454;28;20237;-92
2024/02/29 09:11:01;;;;;;;42.13;38.20;;;6.20;79.50;;;;;;5083825;28;20175;-91
2024/02/29 09:13:26;;;;;;;41.20;37.53;;;6.20;79.20;;;;;;5080520;28;20198;-91
2024/02/29 09:15:52;;;;;;;41.07;37.13;;;6.30;79.30;;;;;;5079799;28;20182;-90
2024/02/29 09:18:17;;;;;;;32.50;29.03;;;6.40;79.30;;;;;;5077786;28;20202;-90
2024/02/29 09:20:43;;;;;;;32.13;28.83;;;6.50;78.30;;;;;;5077871;28;20175;-89
2024/02/29 09:23:11;;;;;;;32.73;29.43;;;6.50;78.40;;;;;;5077909;28;20190;-89
2024/02/29 09:25:37;;;;;;;29.37;26.40;;;6.60;78.50;;;;;;5081898;28;20597;-90
2024/02/29 09:28:02;;;;;;;33.07;29.57;;;6.60;78.50;;;;;;5078957;28;20198;-90
2024/02/29 09:30:28;;;;;;;31.80;28.63;;;6.80;77.90;;;;;;5083016;28;20189;-91
2024/02/29 09:32:55;;;;;;;33.27;29.83;;;6.90;77.90;;;;;;5080359;28;20229;-90
2024/02/29 09:35:21;;;;;;;30.60;27.63;;;6.90;77.70;;;;;;5078971;28;20635;-90
2024/02/29 09:37:47;;;;;;;32.00;28.87;;;7.10;77.60;;;;;;5096547;28;20170;-90
2024/02/29 09:40:15;;;;;;;31.43;28.37;;;7.30;77.40;;;;;;5077689;28;20614;-90
2024/02/29 09:42:44;;;;;;;31.00;28.10;;;7.40;75.60;;;;;;5077832;28;20170;-87
2024/02/29 09:45:11;;;;;;;30.37;27.47;;;7.60;75.90;;;;;;5096190;28;20587;-86
2024/02/29 09:47:39;;;;;;;30.83;27.93;;;7.60;76.10;;;;;;5077157;28;20642;-87
2024/02/29 09:50:07;;;;;;;32.37;29.33;;;7.80;74.60;;;;;;5095530;28;20178;-86
2024/02/29 09:52:36;;;;;;;31.07;28.17;;;8.00;74.00;;;;;;5077067;28;20685;-86
2024/02/29 09:55:04;;;;;;;30.93;28.03;;;8.20;74.60;;;;;;5095317;28;20190;-87
2024/02/29 09:57:34;;;;;;;31.33;28.37;;;8.30;74.10;;;;;;5077806;28;20171;-87
2024/02/29 10:00:02;;;;;;;30.80;27.83;;;8.30;73.90;;;;;;5095976;28;20166;-87
2024/02/29 10:02:27;;;;;;;29.53;26.83;;;8.50;73.80;;;;;;5077822;28;20166;-87
2024/02/29 10:04:53;;;;;;;30.33;27.53;;;8.50;73.70;;;;;;5077577;28;20642;-88
2024/02/29 10:07:19;;;;;;;30.07;27.30;;;8.50;73.00;;;;;;5077645;28;20238;-88
2024/02/29 10:09:45;;;;;;;29.23;26.73;;;8.50;72.60;;;;;;5077476;28;20186;-87
2024/02/29 10:12:16;;;;;;;29.00;26.20;;;8.60;72.70;;;;;;5078120;28;20691;-87
2024/02/29 10:14:42;;;;;;;29.80;27.10;;;8.70;72.60;;;;;;5077069;28;20205;-87
2024/02/29 10:17:07;;;;;;;29.70;26.93;;;8.70;72.90;;;;;;5094715;28;20646;-87
2024/02/29 10:19:38;;;;;;;29.40;26.80;;;8.70;72.70;;;;;;5094646;28;20206;-87
2024/02/29 10:22:03;;;;;;;27.03;24.73;;;8.80;72.20;;;;;;5076748;28;20167;-88
2024/02/29 10:24:30;;;;;;;28.97;26.60;;;8.80;71.50;;;;;;5076440;28;20198;-87
2024/02/29 10:27:02;;;;;;;28.97;26.37;;;8.90;71.30;;;;;;5076401;28;20178;-87
2024/02/29 10:29:29;;;;;;;30.67;27.93;;;9.00;71.50;;;;;;5094722;28;20693;-87
2024/02/29 10:32:01;;;;;;;28.80;26.20;;;9.10;71.80;;;;;;5076317;28;20224;-87
2024/02/29 10:34:26;;;;;;;29.83;27.33;;;9.10;71.60;;;;;;5076214;28;20576;-87
2024/02/29 10:36:54;;;;;;;29.20;26.60;;;9.20;71.90;;;;;;5076217;28;20170;-87
2024/02/29 10:39:19;;;;;;;28.83;26.20;;;9.30;71.60;;;;;;5076319;28;20660;-87
2024/02/29 10:41:52;;;;;;;28.47;26.17;;;9.30;71.40;;;;;;5076172;28;20226;-87
2024/02/29 10:44:24;;;;;;;41.43;38.13;;;9.40;70.90;;;;;;5076235;28;20178;-87
2024/02/29 10:46:50;;;;;;;45.63;42.03;;;9.40;70.90;;;;;;5094370;28;20158;-86
2024/02/29 10:49:37;;;;;;;46.47;42.03;;;9.40;70.20;;;;;;5076005;28;20704;-87
2024/02/29 10:52:11;;;;;;;47.60;44.00;;;9.50;70.90;;;;;;5075982;28;20189;-87
2024/02/29 10:55:05;;;;;;;47.83;44.27;;;9.50;70.70;;;;;;5075827;28;20195;-87
2024/02/29 10:57:42;;;;;;;47.83;43.97;;;9.50;70.60;;;;;;5075948;28;20320;-87
2024/02/29 11:00:11;;;;;;;47.40;43.77;;;9.60;71.20;;;;;;5094299;28;20163;-87
2024/02/29 11:02:38;;;;;;;44.77;41.33;;;9.60;71.00;;;;;;5094091;28;20178;-87
2024/02/29 11:05:05;;;;;;;48.83;45.13;;;9.70;70.20;;;;;;5076378;28;20171;-87
2024/02/29 11:07:31;;;;;;;44.17;40.73;;;9.70;70.60;;;;;;5075898;28;20232;-87
2024/02/29 11:09:58;;;;;;;47.57;43.93;;;9.70;70.30;;;;;;5075666;28;20199;-87
2024/02/29 11:12:28;;;;;;;47.70;43.97;;;9.80;70.20;;;;;;5093853;28;20175;-87
2024/02/29 11:14:57;;;;;;;48.07;43.90;;;9.80;69.50;;;;;;5093803;28;20183;-87
2024/02/29 11:17:27;;;;;;;46.23;42.73;;;9.80;69.10;;;;;;5093536;28;20170;-87
2024/02/29 11:19:57;;;;;;;47.50;43.43;;;9.80;69.00;;;;;;5075501;28;20206;-87
2024/02/29 11:22:32;;;;;;;47.67;44.17;;;9.90;69.60;;;;;;5075576;28;20185;-87
2024/02/29 11:24:59;;;;;;;49.17;45.47;;;9.90;68.60;;;;;;5075379;28;20171;-87
2024/02/29 11:27:30;;;;;;;49.17;45.57;;;10.00;67.90;;;;;;5075582;28;20206;-87
2024/02/29 11:30:00;;;;;;;51.23;47.53;;;10.10;69.30;;;;;;5075486;28;20753;-87
2024/02/29 11:32:28;;;;;;;51.10;47.20;;;10.20;68.40;;;;;;5093459;28;20190;-86
2024/02/29 11:34:54;;;;;;;50.60;46.70;;;10.10;68.00;;;;;;5093712;28;20311;-83
2024/02/29 11:37:20;;;;;;;51.47;47.67;;;10.30;67.70;;;;;;5076244;28;20216;-84
2024/02/29 11:39:47;;;;;;;50.00;46.33;;;10.50;68.40;;;;;;5094578;28;20588;-84
2024/02/29 11:42:12;;;;;;;53.03;49.03;;;10.60;67.50;;;;;;5076157;28;20175;-84
2024/02/29 11:44:45;;;;;;;34.10;31.20;;;10.70;67.90;;;;;;5094043;28;20201;-84
2024/02/29 11:47:11;;;;;;;33.77;30.77;;;10.80;67.40;;;;;;5094457;28;20159;-84
2024/02/29 11:49:36;;;;;;;30.50;27.87;;;10.90;66.30;;;;;;5094093;28;20198;-83
2024/02/29 11:52:02;;;;;;;29.23;26.70;;;10.80;65.70;;;;;;5075654;28;20718;-84
2024/02/29 11:54:28;;;;;;;29.10;26.50;;;10.90;65.70;;;;;;5093845;28;20543;-83
2024/02/29 11:56:54;;;;;;;28.50;26.00;;;11.20;64.80;;;;;;5075769;28;20185;-84
2024/02/29 11:59:19;;;;;;;28.43;25.93;;;11.00;64.20;;;;;;5093720;28;20186;-85
2024/02/29 12:01:45;;;;;;;29.03;26.60;;;11.20;66.00;;;;;;5094028;28;20181;-84
2024/02/29 12:04:11;;;;;;;28.00;25.70;;;11.20;64.80;;;;;;5076534;28;20654;-84
2024/02/29 12:06:39;;;;;;;27.50;25.10;;;11.10;65.60;;;;;;5097872;28;20605;-84
2024/02/29 12:09:12;;;;;;;27.83;25.43;;;11.30;64.50;;;;;;5079373;28;20218;-84
2024/02/29 12:11:38;;;;;;;28.07;25.67;;;11.40;63.70;;;;;;5097590;28;20151;-84
2024/02/29 12:14:06;;;;;;;27.90;25.40;;;11.40;63.90;;;;;;5097806;28;20654;-84
2024/02/29 12:16:34;;;;;;;28.07;25.47;;;11.50;65.30;;;;;;5097402;28;20216;-84
2024/02/29 12:19:00;;;;;;;28.37;25.87;;;11.50;63.60;;;;;;5079220;28;20301;-84
2024/02/29 12:21:26;;;;;;;27.20;25.00;;;11.60;64.60;;;;;;5079501;28;20175;-84
2024/02/29 12:23:52;;;;;;;28.20;25.83;;;11.50;64.50;;;;;;5097611;28;20175;-84
2024/02/29 12:26:21;;;;;;;26.77;24.47;;;11.60;64.40;;;;;;5080073;28;20228;-84
2024/02/29 12:28:50;;;;;;;28.27;25.77;;;11.70;62.80;;;;;;5098239;28;20253;-84
2024/02/29 12:31:16;;;;;;;26.47;24.27;;;11.60;63.50;;;;;;5097349;28;20680;-84
2024/02/29 12:33:43;;;;;;;25.43;23.33;;;11.80;63.80;;;;;;5097754;28;20214;-84